createdAt,value
2023-01-29T00:00:23.538Z,0.60
2023-01-29T00:02:52.883Z,0.60
2023-01-29T00:05:27.772Z,0.60
2023-01-29T00:07:57.475Z,0.60
2023-01-29T00:10:26.667Z,0.60
2023-01-29T00:12:55.910Z,0.60
2023-01-29T00:15:24.821Z,0.60
2023-01-29T00:17:53.770Z,0.60
2023-01-29T00:20:22.521Z,0.60
2023-01-29T00:22:51.357Z,0.60
2023-01-29T00:25:20.296Z,0.60
2023-01-29T00:27:49.342Z,0.60
2023-01-29T00:30:20.297Z,0.60
2023-01-29T00:32:49.327Z,0.60
2023-01-29T00:35:18.386Z,0.60
2023-01-29T00:37:47.312Z,0.60
2023-01-29T00:40:16.803Z,0.60
2023-01-29T00:43:04.892Z,0.60
2023-01-29T00:45:34.410Z,0.60
2023-01-29T00:48:04.342Z,0.60
2023-01-29T00:50:33.635Z,0.70
2023-01-29T00:53:02.451Z,0.60
2023-01-29T00:55:31.424Z,0.60
2023-01-29T00:58:00.341Z,0.60
2023-01-29T01:00:30.033Z,0.60
2023-01-29T01:03:08.470Z,0.60
2023-01-29T01:05:37.539Z,0.60
2023-01-29T01:08:26.276Z,0.60
2023-01-29T01:11:06.902Z,0.60
2023-01-29T01:13:35.852Z,0.60
2023-01-29T01:16:11.081Z,0.60
2023-01-29T01:18:40.421Z,0.60
2023-01-29T01:21:09.506Z,0.60
2023-01-29T01:23:38.360Z,0.60
2023-01-29T01:26:10.324Z,0.60
2023-01-29T01:28:40.231Z,0.60
2023-01-29T01:31:14.533Z,0.60
2023-01-29T01:33:43.535Z,0.60
2023-01-29T01:36:14.333Z,0.60
2023-01-29T01:38:46.159Z,0.65
2023-01-29T01:41:21.354Z,0.63
2023-01-29T01:43:59.379Z,0.60
2023-01-29T01:46:37.597Z,0.60
2023-01-29T01:49:19.064Z,0.60
2023-01-29T01:51:52.647Z,0.60
2023-01-29T01:54:33.179Z,0.60
2023-01-29T01:57:16.574Z,0.60
2023-01-29T02:00:12.383Z,0.60
2023-01-29T02:03:05.494Z,0.60
2023-01-29T02:05:55.166Z,0.60
2023-01-29T02:09:04.624Z,0.60
2023-01-29T02:11:33.735Z,0.63
2023-01-29T02:14:02.889Z,0.60
2023-01-29T02:16:34.636Z,0.60
2023-01-29T02:19:11.643Z,0.60
2023-01-29T02:21:46.244Z,0.60
2023-01-29T02:24:18.343Z,0.60
2023-01-29T02:27:00.373Z,0.60
2023-01-29T02:29:47.935Z,0.60
2023-01-29T02:32:32.217Z,0.60
2023-01-29T02:35:25.952Z,0.60
2023-01-29T02:38:18.750Z,0.60
2023-01-29T02:40:59.642Z,0.60
2023-01-29T02:43:41.795Z,0.60
2023-01-29T02:46:38.246Z,0.60
2023-01-29T02:51:52.279Z,0.60
2023-01-29T02:54:29.550Z,0.60
2023-01-29T02:57:01.779Z,0.60
2023-01-29T02:59:45.013Z,0.60
2023-01-29T03:02:25.220Z,0.60
2023-01-29T03:05:00.552Z,0.60
2023-01-29T03:07:43.258Z,0.60
2023-01-29T03:13:05.773Z,0.60
2023-01-29T03:15:47.702Z,0.60
2023-01-29T03:18:34.885Z,0.60
2023-01-29T03:21:35.402Z,0.60
2023-01-29T03:24:25.458Z,0.60
2023-01-29T03:27:13.449Z,0.60
2023-01-29T03:30:06.327Z,0.52
2023-01-29T03:32:52.564Z,0.60
2023-01-29T03:35:34.102Z,0.50
2023-01-29T03:38:12.051Z,0.60
2023-01-29T03:40:51.187Z,0.50
2023-01-29T03:43:37.469Z,0.60
2023-01-29T03:46:19.388Z,0.57
2023-01-29T03:49:22.869Z,0.57
2023-01-29T03:52:03.632Z,0.60
2023-01-29T03:54:55.374Z,0.57
2023-01-29T03:57:39.431Z,0.60
2023-01-29T04:00:16.060Z,0.50
2023-01-29T04:03:23.964Z,0.55
2023-01-29T04:06:22.946Z,0.60
2023-01-29T04:09:12.995Z,0.60
2023-01-29T04:11:52.520Z,0.50
2023-01-29T04:14:21.687Z,0.60
2023-01-29T04:16:58.153Z,0.50
2023-01-29T04:19:52.051Z,0.50
2023-01-29T04:22:28.428Z,0.52
2023-01-29T04:25:03.320Z,0.55
2023-01-29T04:28:30.932Z,0.60
2023-01-29T04:31:07.254Z,0.50
2023-01-29T04:33:52.007Z,0.50
2023-01-29T04:36:29.560Z,0.50
2023-01-29T04:39:11.917Z,0.60
2023-01-29T04:41:52.450Z,0.50
2023-01-29T04:44:27.787Z,0.50
2023-01-29T04:47:09.210Z,0.50
2023-01-29T04:49:49.921Z,0.50
2023-01-29T04:52:34.156Z,0.50
2023-01-29T04:55:20.894Z,0.50
2023-01-29T04:58:07.857Z,0.50
2023-01-29T05:00:44.782Z,0.50
2023-01-29T05:03:16.670Z,0.50
2023-01-29T05:05:50.194Z,0.50
2023-01-29T05:08:24.778Z,0.50
2023-01-29T05:10:56.290Z,0.50
2023-01-29T05:13:27.616Z,0.50
2023-01-29T05:16:15.505Z,0.50
2023-01-29T05:18:44.456Z,0.60
2023-01-29T05:21:13.653Z,0.60
2023-01-29T05:23:59.962Z,0.63
2023-01-29T05:26:47.325Z,0.50
2023-01-29T05:29:16.139Z,0.50
2023-01-29T05:31:46.089Z,0.50
2023-01-29T05:34:14.982Z,0.50
2023-01-29T05:36:43.822Z,0.40
2023-01-29T05:39:12.770Z,0.50
2023-01-29T05:41:41.822Z,0.50
2023-01-29T05:44:11.626Z,0.50
2023-01-29T05:46:40.548Z,0.50
2023-01-29T05:49:09.357Z,0.50
2023-01-29T05:51:38.165Z,0.40
2023-01-29T05:54:07.097Z,0.40
2023-01-29T05:56:36.013Z,0.40
2023-01-29T05:59:04.987Z,0.40
2023-01-29T06:01:34.623Z,0.40
2023-01-29T06:04:04.353Z,0.43
2023-01-29T06:06:33.395Z,0.50
2023-01-29T06:09:03.197Z,0.50
2023-01-29T06:11:32.092Z,0.40
2023-01-29T06:14:02.016Z,0.40
2023-01-29T06:16:30.934Z,0.45
2023-01-29T06:18:59.854Z,0.50
2023-01-29T06:21:28.732Z,0.47
2023-01-29T06:23:57.742Z,0.50
2023-01-29T06:26:26.701Z,0.40
2023-01-29T06:28:55.656Z,0.47
2023-01-29T06:31:37.959Z,0.50
2023-01-29T06:34:08.881Z,0.50
2023-01-29T06:36:37.923Z,0.40
2023-01-29T06:39:06.800Z,0.50
2023-01-29T06:41:35.881Z,0.40
2023-01-29T06:44:04.783Z,0.50
2023-01-29T06:46:33.603Z,0.40
2023-01-29T06:49:02.789Z,0.50
2023-01-29T06:51:31.678Z,0.40
2023-01-29T06:54:00.804Z,0.40
2023-01-29T06:56:29.777Z,0.40
2023-01-29T06:58:58.645Z,0.45
2023-01-29T07:01:35.977Z,0.40
2023-01-29T07:04:05.966Z,0.40
2023-01-29T07:06:35.159Z,0.50
2023-01-29T07:09:06.714Z,0.40
2023-01-29T07:11:38.465Z,0.50
2023-01-29T07:14:07.619Z,0.50
2023-01-29T07:16:36.683Z,0.50
2023-01-29T07:19:05.640Z,0.50
2023-01-29T07:21:34.482Z,0.50
2023-01-29T07:24:03.943Z,0.50
2023-01-29T07:26:32.914Z,0.50
2023-01-29T07:29:01.771Z,0.50
2023-01-29T07:31:30.793Z,0.43
2023-01-29T07:33:59.663Z,0.50
2023-01-29T07:36:29.097Z,0.50
2023-01-29T07:38:57.889Z,0.40
2023-01-29T07:41:26.720Z,0.40
2023-01-29T07:43:56.464Z,0.40
2023-01-29T07:46:25.379Z,0.40
2023-01-29T07:48:54.319Z,0.50
2023-01-29T07:51:23.175Z,0.50
2023-01-29T07:53:52.159Z,0.50
2023-01-29T07:56:21.087Z,0.50
2023-01-29T07:58:49.960Z,0.43
2023-01-29T08:01:19.275Z,0.40
2023-01-29T08:03:50.043Z,0.50
2023-01-29T08:06:20.000Z,0.50
2023-01-29T08:08:48.896Z,0.50
2023-01-29T08:11:17.745Z,0.50
2023-01-29T08:13:47.233Z,0.50
2023-01-29T08:16:16.176Z,0.50
2023-01-29T08:18:48.277Z,0.50
2023-01-29T08:21:17.198Z,0.50
2023-01-29T08:23:46.355Z,0.47
2023-01-29T08:26:15.284Z,0.50
2023-01-29T08:28:44.076Z,0.50
2023-01-29T08:31:17.510Z,0.50
2023-01-29T08:33:46.501Z,0.50
2023-01-29T08:36:15.945Z,0.50
2023-01-29T08:38:44.744Z,0.50
2023-01-29T08:41:13.696Z,0.40
2023-01-29T08:43:42.471Z,0.40
2023-01-29T08:46:11.412Z,0.40
2023-01-29T08:48:40.661Z,0.43
2023-01-29T08:51:10.084Z,0.47
2023-01-29T08:53:39.044Z,0.40
2023-01-29T08:56:08.241Z,0.50
2023-01-29T08:58:37.112Z,0.40
2023-01-29T09:01:08.699Z,0.40
2023-01-29T09:03:38.862Z,0.40
2023-01-29T09:06:09.580Z,0.40
2023-01-29T09:08:38.731Z,0.40
2023-01-29T09:11:07.956Z,0.45
2023-01-29T09:13:36.908Z,0.40
2023-01-29T09:16:06.034Z,0.50
2023-01-29T09:18:34.891Z,0.50
2023-01-29T09:21:03.918Z,0.50
2023-01-29T09:23:33.275Z,0.50
2023-01-29T09:26:02.138Z,0.50
2023-01-29T09:28:31.044Z,0.50
2023-01-29T09:31:03.563Z,0.50
2023-01-29T09:33:33.143Z,0.50
2023-01-29T09:36:04.125Z,0.50
2023-01-29T09:38:32.962Z,0.50
2023-01-29T09:41:46.203Z,0.50
2023-01-29T09:44:26.146Z,0.50
2023-01-29T09:46:56.853Z,0.50
2023-01-29T09:49:51.119Z,0.52
2023-01-29T09:52:29.579Z,0.50
2023-01-29T09:55:04.406Z,0.50
2023-01-29T09:57:46.197Z,0.50
2023-01-29T10:00:32.674Z,0.50
2023-01-29T10:03:23.275Z,0.50
2023-01-29T10:06:16.273Z,0.50
2023-01-29T10:09:06.360Z,0.52
2023-01-29T10:12:13.798Z,0.50
2023-01-29T10:15:06.614Z,0.60
2023-01-29T10:17:53.805Z,0.50
2023-01-29T10:20:35.916Z,0.60
2023-01-29T10:23:22.424Z,0.60
2023-01-29T10:25:51.570Z,0.70
2023-01-29T10:28:26.228Z,0.50
2023-01-29T10:31:09.309Z,0.50
2023-01-29T10:33:49.471Z,0.50
2023-01-29T10:36:36.820Z,0.50
2023-01-29T10:39:05.765Z,0.60
2023-01-29T10:42:12.434Z,0.50
2023-01-29T10:45:05.634Z,0.60
2023-01-29T10:47:37.337Z,0.60
2023-01-29T10:50:43.461Z,0.55
2023-01-29T10:53:31.547Z,0.50
2023-01-29T10:56:21.002Z,0.50
2023-01-29T10:58:55.883Z,0.50
2023-01-29T11:01:27.502Z,0.50
2023-01-29T11:04:03.539Z,0.60
2023-01-29T11:06:37.071Z,0.60
2023-01-29T11:09:19.996Z,0.60
2023-01-29T11:11:55.657Z,0.52
2023-01-29T11:14:30.579Z,0.60
2023-01-29T11:17:00.186Z,0.60
2023-01-29T11:19:43.233Z,0.50
2023-01-29T11:22:24.217Z,0.60
2023-01-29T11:25:18.971Z,0.50
2023-01-29T11:27:53.001Z,0.57
2023-01-29T11:30:29.388Z,0.50
2023-01-29T11:33:13.551Z,0.60
2023-01-29T11:35:42.687Z,0.50
2023-01-29T11:38:17.385Z,0.50
2023-01-29T11:40:46.342Z,0.50
2023-01-29T11:43:23.918Z,0.50
2023-01-29T11:45:56.954Z,0.57
2023-01-29T11:48:40.150Z,0.60
2023-01-29T11:51:12.517Z,0.50
2023-01-29T11:53:50.277Z,0.60
2023-01-29T11:56:24.965Z,0.60
2023-01-29T11:58:56.913Z,0.50
2023-01-29T12:01:39.689Z,0.60
2023-01-29T12:04:23.198Z,0.60
2023-01-29T12:06:54.901Z,0.60
2023-01-29T12:09:30.188Z,0.60
2023-01-29T12:12:18.806Z,0.60
2023-01-29T12:14:47.760Z,0.60
2023-01-29T12:17:27.345Z,0.50
2023-01-29T12:20:04.707Z,0.50
2023-01-29T12:22:56.684Z,0.50
2023-01-29T12:25:34.338Z,0.55
2023-01-29T12:28:33.100Z,0.50
2023-01-29T12:31:15.792Z,0.60
2023-01-29T12:33:55.345Z,0.50
2023-01-29T12:36:44.108Z,0.60
2023-01-29T12:39:17.654Z,0.57
2023-01-29T12:42:01.291Z,0.50
2023-01-29T12:44:44.170Z,0.50
2023-01-29T12:47:38.959Z,0.50
2023-01-29T12:50:24.348Z,0.50
2023-01-29T12:53:01.404Z,0.50
2023-01-29T12:55:48.374Z,0.50
2023-01-29T12:58:39.194Z,0.57
2023-01-29T13:01:15.320Z,0.50
2023-01-29T13:04:00.845Z,0.60
2023-01-29T13:06:37.495Z,0.50
2023-01-29T13:09:12.742Z,0.50
2023-01-29T13:11:44.463Z,0.50
2023-01-29T13:14:29.492Z,0.50
2023-01-29T13:17:15.263Z,0.50
2023-01-29T13:20:04.851Z,0.60
2023-01-29T13:22:38.852Z,0.60
2023-01-29T13:25:13.397Z,0.60
2023-01-29T13:27:46.394Z,0.60
2023-01-29T13:30:37.451Z,0.52
2023-01-29T13:33:10.634Z,0.52
2023-01-29T13:35:43.746Z,0.60
2023-01-29T13:38:33.993Z,0.60
2023-01-29T13:41:11.535Z,0.50
2023-01-29T13:43:43.549Z,0.50
2023-01-29T13:46:21.870Z,0.60
2023-01-29T13:48:55.104Z,0.55
2023-01-29T13:51:33.255Z,0.50
2023-01-29T13:54:06.648Z,0.60
2023-01-29T13:56:35.493Z,0.50
2023-01-29T13:59:06.950Z,0.60
2023-01-29T14:01:49.037Z,0.60
2023-01-29T14:04:26.119Z,0.60
2023-01-29T14:06:59.386Z,0.60
2023-01-29T14:09:38.332Z,0.60
2023-01-29T14:12:22.528Z,0.60
2023-01-29T14:14:55.666Z,0.60
2023-01-29T14:17:27.752Z,0.60
2023-01-29T14:20:18.431Z,0.60
2023-01-29T14:22:56.932Z,0.60
2023-01-29T14:25:34.495Z,0.60
2023-01-29T14:28:07.765Z,0.60
2023-01-29T14:30:38.723Z,0.60
2023-01-29T14:33:40.376Z,0.57
2023-01-29T14:36:16.314Z,0.60
2023-01-29T14:38:52.645Z,0.60
2023-01-29T14:41:33.432Z,0.60
2023-01-29T14:44:39.497Z,0.60
2023-01-29T14:49:57.878Z,0.60
2023-01-29T14:52:38.329Z,0.60
2023-01-29T14:55:29.143Z,0.60
2023-01-29T14:57:58.930Z,0.60
2023-01-29T15:00:31.925Z,0.60
2023-01-29T15:03:03.633Z,0.60
2023-01-29T15:05:37.975Z,0.60
2023-01-29T15:08:31.988Z,0.60
2023-01-29T15:11:30.790Z,0.60
2023-01-29T15:14:18.004Z,0.50
2023-01-29T15:17:06.654Z,0.60
2023-01-29T15:19:51.481Z,0.60
2023-01-29T15:22:26.662Z,0.60
2023-01-29T15:25:15.241Z,0.60
2023-01-29T15:27:46.430Z,0.60
2023-01-29T15:30:22.752Z,0.60
2023-01-29T15:32:52.053Z,0.60
2023-01-29T15:35:26.679Z,0.60
2023-01-29T15:38:06.761Z,0.63
2023-01-29T15:40:35.828Z,0.60
2023-01-29T15:43:23.975Z,0.60
2023-01-29T15:45:58.008Z,0.60
2023-01-29T15:48:42.456Z,0.60
2023-01-29T15:51:20.728Z,0.60
2023-01-29T15:53:53.890Z,0.60
2023-01-29T15:56:32.033Z,0.60
2023-01-29T15:59:07.278Z,0.63
2023-01-29T16:01:39.416Z,0.60
2023-01-29T16:04:34.251Z,0.60
2023-01-29T16:07:04.948Z,0.60
2023-01-29T16:09:33.901Z,0.60
2023-01-29T16:12:03.489Z,0.60
2023-01-29T16:14:32.799Z,0.70
2023-01-29T16:17:22.750Z,0.60
2023-01-29T16:20:02.983Z,0.65
2023-01-29T16:22:36.317Z,0.60
2023-01-29T16:25:15.974Z,0.63
2023-01-29T16:27:45.438Z,0.70
2023-01-29T16:30:19.144Z,0.60
2023-01-29T16:32:48.100Z,0.60
2023-01-29T16:35:18.109Z,0.60
2023-01-29T16:37:52.207Z,0.60
2023-01-29T16:40:33.255Z,0.60
2023-01-29T16:43:20.761Z,0.60
2023-01-29T16:46:04.675Z,0.68
2023-01-29T16:48:35.371Z,0.60
2023-01-29T16:51:07.032Z,0.60
2023-01-29T16:53:36.753Z,0.60
2023-01-29T16:56:09.209Z,0.60
2023-01-29T16:58:38.185Z,0.60
2023-01-29T17:01:12.330Z,0.63
2023-01-29T17:03:42.793Z,0.60
2023-01-29T17:06:32.161Z,0.60
2023-01-29T17:09:02.256Z,0.70
2023-01-29T17:11:45.006Z,0.60
2023-01-29T17:14:20.060Z,0.60
2023-01-29T17:17:02.866Z,0.60
2023-01-29T17:19:32.066Z,0.60
2023-01-29T17:22:05.234Z,0.63
2023-01-29T17:24:34.103Z,0.60
2023-01-29T17:27:03.216Z,0.70
2023-01-29T17:29:32.654Z,0.70
2023-01-29T17:32:01.710Z,0.70
2023-01-29T17:34:30.648Z,0.70
2023-01-29T17:37:02.326Z,0.60
2023-01-29T17:39:31.332Z,0.60
2023-01-29T17:42:01.951Z,0.60
2023-01-29T17:44:31.101Z,0.60
2023-01-29T17:47:01.370Z,0.70
2023-01-29T17:49:33.012Z,0.65
2023-01-29T17:52:02.220Z,0.60
2023-01-29T17:54:31.651Z,0.60
2023-01-29T17:57:00.949Z,0.60
2023-01-29T17:59:32.799Z,0.60
2023-01-29T18:02:02.627Z,0.60
2023-01-29T18:04:31.664Z,0.60
2023-01-29T18:07:00.513Z,0.63
2023-01-29T18:09:29.313Z,0.60
2023-01-29T18:11:58.124Z,0.60
2023-01-29T18:14:27.214Z,0.60
2023-01-29T18:16:57.385Z,0.60
2023-01-29T18:19:31.682Z,0.60
2023-01-29T18:22:00.556Z,0.60
2023-01-29T18:24:29.341Z,0.60
2023-01-29T18:26:58.091Z,0.60
2023-01-29T18:29:30.680Z,0.60
2023-01-29T18:32:00.225Z,0.60
2023-01-29T18:34:29.679Z,0.60
2023-01-29T18:37:00.943Z,0.60
2023-01-29T18:39:29.952Z,0.60
2023-01-29T18:41:58.804Z,0.60
2023-01-29T18:44:30.200Z,0.65
2023-01-29T18:46:58.983Z,0.60
2023-01-29T18:49:27.762Z,0.60
2023-01-29T18:51:56.906Z,0.60
2023-01-29T18:54:25.775Z,0.60
2023-01-29T18:57:06.188Z,0.60
2023-01-29T18:59:42.622Z,0.60
2023-01-29T19:02:17.093Z,0.60
2023-01-29T19:04:46.988Z,0.60
2023-01-29T19:07:16.848Z,0.60
2023-01-29T19:09:47.139Z,0.60
2023-01-29T19:12:15.918Z,0.70
2023-01-29T19:14:44.789Z,0.70
2023-01-29T19:17:13.669Z,0.60
2023-01-29T19:19:42.568Z,0.60
2023-01-29T19:22:17.104Z,0.60
2023-01-29T19:24:46.423Z,0.60
2023-01-29T19:27:15.237Z,0.70
2023-01-29T19:29:44.108Z,0.70
2023-01-29T19:32:13.039Z,0.70
2023-01-29T19:34:41.874Z,0.70
2023-01-29T19:37:10.723Z,0.60
2023-01-29T19:39:39.506Z,0.60
2023-01-29T19:42:08.405Z,0.60
2023-01-29T19:44:37.193Z,0.60
2023-01-29T19:47:06.185Z,0.60
2023-01-29T19:49:34.983Z,0.60
2023-01-29T19:52:04.304Z,0.60
2023-01-29T19:54:33.286Z,0.57
2023-01-29T19:57:02.140Z,0.60
2023-01-29T19:59:30.906Z,0.60
2023-01-29T20:02:00.660Z,0.60
2023-01-29T20:04:30.686Z,0.60
2023-01-29T20:07:00.077Z,0.60
2023-01-29T20:09:31.101Z,0.50
2023-01-29T20:11:59.871Z,0.60
2023-01-29T20:14:28.642Z,0.60
2023-01-29T20:16:57.438Z,0.70
2023-01-29T20:19:26.207Z,0.60
2023-01-29T20:21:55.352Z,0.60
2023-01-29T20:24:25.182Z,0.60
2023-01-29T20:26:53.993Z,0.70
2023-01-29T20:29:22.803Z,0.60
2023-01-29T20:31:51.629Z,0.60
2023-01-29T20:34:20.491Z,0.60
2023-01-29T20:36:49.266Z,0.60
2023-01-29T20:39:18.181Z,0.60
2023-01-29T20:41:46.986Z,0.60
2023-01-29T20:44:15.787Z,0.60
2023-01-29T20:46:45.131Z,0.60
2023-01-29T20:49:13.919Z,0.60
2023-01-29T20:51:43.927Z,0.60
2023-01-29T20:54:15.611Z,0.60
2023-01-29T20:56:46.353Z,0.60
2023-01-29T20:59:16.244Z,0.65
2023-01-29T21:01:46.932Z,0.60
2023-01-29T21:04:15.881Z,0.60
2023-01-29T21:06:44.667Z,0.60
2023-01-29T21:09:13.455Z,0.60
2023-01-29T21:11:42.315Z,0.60
2023-01-29T21:14:11.103Z,0.60
2023-01-29T21:16:39.960Z,0.68
2023-01-29T21:19:09.553Z,0.60
2023-01-29T21:21:38.606Z,0.60
2023-01-29T21:24:09.473Z,0.70
2023-01-29T21:26:40.966Z,0.60
2023-01-29T21:29:11.885Z,0.60
2023-01-29T21:31:41.176Z,0.60
2023-01-29T21:34:10.920Z,0.60
2023-01-29T21:36:40.210Z,0.60
2023-01-29T21:39:18.232Z,0.60
2023-01-29T21:42:07.735Z,0.70
2023-01-29T21:44:37.594Z,0.65
2023-01-29T21:47:12.861Z,0.68
2023-01-29T21:49:45.588Z,0.60
2023-01-29T21:52:15.665Z,0.60
2023-01-29T21:54:49.317Z,0.70
2023-01-29T21:57:18.418Z,0.70
2023-01-29T21:59:52.404Z,0.70
2023-01-29T22:02:24.689Z,0.70
2023-01-29T22:05:08.795Z,0.60
2023-01-29T22:07:45.191Z,0.60
2023-01-29T22:10:14.378Z,0.70
2023-01-29T22:12:44.341Z,0.70
2023-01-29T22:15:13.709Z,0.60
2023-01-29T22:17:42.862Z,0.60
2023-01-29T22:20:13.609Z,0.60
2023-01-29T22:22:42.768Z,0.68
2023-01-29T22:25:11.606Z,0.60
2023-01-29T22:27:41.555Z,0.63
2023-01-29T22:30:11.296Z,0.60
2023-01-29T22:32:40.183Z,0.60
2023-01-29T22:35:10.091Z,0.60
2023-01-29T22:37:38.906Z,0.60
2023-01-29T22:40:08.437Z,0.60
2023-01-29T22:42:37.238Z,0.60
2023-01-29T22:45:06.485Z,0.60
2023-01-29T22:47:35.538Z,0.60
2023-01-29T22:50:08.039Z,0.60
2023-01-29T22:52:40.086Z,0.60
2023-01-29T22:55:11.284Z,0.60
2023-01-29T22:57:41.244Z,0.63
2023-01-29T23:00:12.848Z,0.60
2023-01-29T23:02:42.306Z,0.60
2023-01-29T23:05:11.240Z,0.60
2023-01-29T23:07:40.111Z,0.60
2023-01-29T23:10:10.882Z,0.60
2023-01-29T23:12:41.282Z,0.60
2023-01-29T23:15:10.383Z,0.60
2023-01-29T23:17:40.272Z,0.60
2023-01-29T23:20:09.700Z,0.60
2023-01-29T23:22:38.921Z,0.60
2023-01-29T23:25:07.988Z,0.55
2023-01-29T23:27:37.095Z,0.60
2023-01-29T23:30:07.259Z,0.60
2023-01-29T23:32:36.276Z,0.60
2023-01-29T23:35:05.393Z,0.60
2023-01-29T23:37:34.384Z,0.60
2023-01-29T23:40:03.473Z,0.60
2023-01-29T23:42:32.339Z,0.60
2023-01-29T23:45:01.154Z,0.60
2023-01-29T23:47:31.560Z,0.60
2023-01-29T23:50:00.443Z,0.60
2023-01-29T23:52:29.414Z,0.60
2023-01-29T23:54:58.160Z,0.60
2023-01-29T23:57:27.004Z,0.60
2023-01-29T23:59:55.802Z,0.60
